createdAt,value
2019-03-30T00:02:17.013Z,6.60
2019-03-30T00:04:45.828Z,6.40
2019-03-30T00:07:14.680Z,10.53
2019-03-30T00:09:43.590Z,10.50
2019-03-30T00:12:12.442Z,3.62
2019-03-30T00:14:41.267Z,4.83
2019-03-30T00:17:10.103Z,6.78
2019-03-30T00:19:38.943Z,8.98
2019-03-30T00:22:08.172Z,13.00
2019-03-30T00:24:36.960Z,5.47
2019-03-30T00:27:05.762Z,7.97
2019-03-30T00:29:34.614Z,5.58
2019-03-30T00:32:03.442Z,4.50
2019-03-30T00:34:32.235Z,5.78
2019-03-30T00:37:01.078Z,6.15
2019-03-30T00:39:29.979Z,4.47
2019-03-30T00:41:58.864Z,5.70
2019-03-30T00:44:27.712Z,2.42
2019-03-30T00:46:56.510Z,4.37
2019-03-30T00:49:25.484Z,4.37
2019-03-30T00:51:54.996Z,4.80
2019-03-30T00:54:23.796Z,8.65
2019-03-30T00:56:52.739Z,12.00
2019-03-30T00:59:21.612Z,7.28
2019-03-30T01:01:50.442Z,3.42
2019-03-30T01:04:19.229Z,4.17
2019-03-30T01:06:48.085Z,5.28
2019-03-30T01:09:17.433Z,10.72
2019-03-30T01:11:46.245Z,4.33
2019-03-30T01:14:15.164Z,3.72
2019-03-30T01:16:44.174Z,3.85
2019-03-30T01:19:12.984Z,5.97
2019-03-30T01:21:41.951Z,4.83
2019-03-30T01:24:10.783Z,4.83
2019-03-30T01:26:39.624Z,8.23
2019-03-30T01:29:08.446Z,4.20
2019-03-30T01:31:37.253Z,4.15
2019-03-30T01:34:06.052Z,5.90
2019-03-30T01:36:34.937Z,5.25
2019-03-30T01:39:04.641Z,6.67
2019-03-30T01:41:33.463Z,2.87
2019-03-30T01:44:02.313Z,8.70
2019-03-30T01:46:31.197Z,4.20
2019-03-30T01:49:00.100Z,4.15
2019-03-30T01:51:28.935Z,3.22
2019-03-30T01:53:57.758Z,2.92
2019-03-30T01:56:26.692Z,5.40
2019-03-30T01:58:55.503Z,7.28
2019-03-30T02:01:24.311Z,5.47
2019-03-30T02:03:53.136Z,5.47
2019-03-30T02:06:22.006Z,5.40
2019-03-30T02:08:50.899Z,10.93
2019-03-30T02:11:19.704Z,6.70
2019-03-30T02:13:48.543Z,3.62
2019-03-30T02:16:17.489Z,4.25
2019-03-30T02:18:46.380Z,6.17
2019-03-30T02:21:15.302Z,5.67
2019-03-30T02:23:44.215Z,5.72
2019-03-30T02:26:13.168Z,4.15
2019-03-30T02:28:41.970Z,7.08
2019-03-30T02:31:10.790Z,4.80
2019-03-30T02:33:39.725Z,5.60
2019-03-30T02:36:08.583Z,6.08
2019-03-30T02:38:37.509Z,3.92
2019-03-30T02:41:06.307Z,3.37
2019-03-30T02:43:35.193Z,4.67
2019-03-30T02:46:04.010Z,7.10
2019-03-30T02:48:32.959Z,4.40
2019-03-30T02:51:01.788Z,5.78
2019-03-30T02:53:30.725Z,5.75
2019-03-30T02:55:59.640Z,3.62
2019-03-30T02:58:28.531Z,4.17
2019-03-30T03:00:57.313Z,6.90
2019-03-30T03:03:26.118Z,4.53
2019-03-30T03:05:54.956Z,3.95
2019-03-30T03:08:23.797Z,3.75
2019-03-30T03:10:52.625Z,4.03
2019-03-30T03:13:21.467Z,4.87
2019-03-30T03:15:50.279Z,3.35
2019-03-30T03:18:19.077Z,3.67
2019-03-30T03:21:06.148Z,2.08
2019-03-30T03:23:18.389Z,3.87
2019-03-30T03:25:47.256Z,3.92
2019-03-30T03:28:16.146Z,3.85
2019-03-30T03:30:45.052Z,2.52
2019-03-30T03:33:13.819Z,3.30
2019-03-30T03:35:42.673Z,4.53
2019-03-30T03:38:46.401Z,2.98
2019-03-30T03:41:15.235Z,2.90
2019-03-30T03:43:44.062Z,3.02
2019-03-30T03:46:12.869Z,3.20
2019-03-30T03:48:41.806Z,2.60
2019-03-30T03:51:25.522Z,4.53
2019-03-30T05:41:24.117Z,0.70
2019-03-30T06:01:02.962Z,1.30
2019-03-30T06:03:31.808Z,0.72
2019-03-30T06:06:00.604Z,0.57
2019-03-30T06:08:29.431Z,0.40
2019-03-30T06:10:58.245Z,0.93
2019-03-30T06:13:27.107Z,0.53
2019-03-30T06:15:55.996Z,0.40
2019-03-30T06:18:25.974Z,1.10
2019-03-30T06:20:54.928Z,1.52
2019-03-30T06:23:25.230Z,0.95
2019-03-30T06:25:54.158Z,1.17
2019-03-30T06:28:23.156Z,0.60
2019-03-30T06:30:52.025Z,1.17
2019-03-30T06:33:20.897Z,0.62
2019-03-30T06:35:49.729Z,0.85
2019-03-30T06:38:18.599Z,1.10
2019-03-30T06:40:47.394Z,0.68
2019-03-30T06:43:16.638Z,1.55
2019-03-30T06:45:45.556Z,1.35
2019-03-30T06:48:14.504Z,0.55
2019-03-30T06:50:43.367Z,0.37
2019-03-30T06:53:12.272Z,0.70
2019-03-30T06:55:41.091Z,1.10
2019-03-30T06:58:09.887Z,1.60
2019-03-30T07:00:38.717Z,0.72
2019-03-30T07:03:08.099Z,0.85
2019-03-30T07:05:39.076Z,2.75
2019-03-30T07:08:10.939Z,0.50
2019-03-30T07:10:39.791Z,0.68
2019-03-30T07:13:08.982Z,2.20
2019-03-30T07:15:43.304Z,1.27
2019-03-30T07:18:13.013Z,1.35
2019-03-30T07:20:41.860Z,0.95
2019-03-30T07:23:12.363Z,1.15
2019-03-30T07:25:41.154Z,1.37
2019-03-30T07:28:09.965Z,0.72
2019-03-30T07:30:38.792Z,1.57
2019-03-30T07:33:07.599Z,0.80
2019-03-30T07:35:36.398Z,0.68
2019-03-30T07:38:05.315Z,1.05
2019-03-30T07:40:36.742Z,0.75
2019-03-30T07:43:05.541Z,1.05
2019-03-30T07:45:34.399Z,0.62
2019-03-30T07:48:03.199Z,0.30
2019-03-30T07:50:33.506Z,0.40
2019-03-30T07:53:03.392Z,0.93
2019-03-30T07:55:32.297Z,1.02
2019-03-30T07:58:01.390Z,0.62
2019-03-30T08:00:31.085Z,0.62
2019-03-30T08:03:00.166Z,1.75
2019-03-30T08:05:28.905Z,0.75
2019-03-30T08:07:57.733Z,1.85
2019-03-30T08:10:28.037Z,0.25
2019-03-30T08:12:56.855Z,1.98
2019-03-30T08:15:25.687Z,0.30
2019-03-30T08:17:54.918Z,1.45
2019-03-30T08:20:23.838Z,0.72
2019-03-30T08:22:52.678Z,0.90
2019-03-30T08:25:21.639Z,2.25
2019-03-30T08:27:50.475Z,0.70
2019-03-30T08:30:21.033Z,1.22
2019-03-30T08:32:49.931Z,1.10
2019-03-30T08:35:18.807Z,1.07
2019-03-30T08:37:47.652Z,2.67
2019-03-30T08:40:16.450Z,1.15
2019-03-30T08:42:45.270Z,1.10
2019-03-30T08:45:14.187Z,1.20
2019-03-30T08:47:42.990Z,1.40
2019-03-30T08:50:12.207Z,1.75
2019-03-30T08:52:41.051Z,1.22
2019-03-30T08:55:10.430Z,1.67
2019-03-30T08:57:39.241Z,0.72
2019-03-30T09:00:08.903Z,3.30
2019-03-30T09:02:37.686Z,2.22
2019-03-30T09:05:08.054Z,2.05
2019-03-30T09:07:36.901Z,2.10
2019-03-30T09:10:09.172Z,1.45
2019-03-30T09:12:38.225Z,0.75
2019-03-30T09:15:08.270Z,2.83
2019-03-30T09:17:37.425Z,3.08
2019-03-30T09:20:07.773Z,2.10
2019-03-30T09:22:36.639Z,1.95
2019-03-30T09:25:05.818Z,2.02
2019-03-30T09:27:34.630Z,0.68
2019-03-30T09:30:03.767Z,1.60
2019-03-30T09:32:32.673Z,1.00
2019-03-30T09:35:01.486Z,1.45
2019-03-30T09:37:30.435Z,1.20
2019-03-30T09:39:59.239Z,2.60
2019-03-30T09:42:28.090Z,1.00
2019-03-30T09:44:57.467Z,1.67
2019-03-30T09:47:26.298Z,0.82
2019-03-30T09:49:55.122Z,1.98
2019-03-30T09:52:23.942Z,1.90
2019-03-30T09:54:53.376Z,0.55
2019-03-30T09:57:22.194Z,0.50
2019-03-30T09:59:51.130Z,1.05
2019-03-30T10:02:21.406Z,1.70
2019-03-30T10:04:50.262Z,2.05
2019-03-30T10:07:19.073Z,1.87
2019-03-30T10:09:47.857Z,2.83
2019-03-30T10:12:16.702Z,1.17
2019-03-30T10:14:45.564Z,3.55
2019-03-30T10:17:14.420Z,4.80
2019-03-30T10:19:43.196Z,6.22
2019-03-30T10:22:12.026Z,3.65
2019-03-30T10:24:40.954Z,3.45
2019-03-30T10:27:09.780Z,3.80
2019-03-30T10:29:38.610Z,5.37
2019-03-30T10:32:07.429Z,2.60
2019-03-30T10:34:39.449Z,4.28
2019-03-30T10:37:06.886Z,5.30
2019-03-30T10:39:35.699Z,5.05
2019-03-30T10:42:04.648Z,4.05
2019-03-30T10:44:33.457Z,5.50
2019-03-30T10:47:02.280Z,4.17
2019-03-30T10:49:31.461Z,3.80
2019-03-30T10:52:00.325Z,8.38
2019-03-30T10:54:29.135Z,7.00
2019-03-30T10:56:57.962Z,4.30
2019-03-30T10:59:27.024Z,3.72
2019-03-30T11:01:55.793Z,2.70
2019-03-30T11:04:24.701Z,3.65
2019-03-30T11:06:53.521Z,4.75
2019-03-30T11:09:22.444Z,2.62
2019-03-30T11:11:51.275Z,3.70
2019-03-30T11:14:20.103Z,2.65
2019-03-30T11:16:49.005Z,2.65
2019-03-30T11:19:17.821Z,2.98
2019-03-30T11:21:46.627Z,4.65
2019-03-30T11:24:15.498Z,2.72
2019-03-30T11:26:44.411Z,2.72
2019-03-30T11:29:13.284Z,1.98
2019-03-30T11:31:42.096Z,2.35
2019-03-30T11:34:10.918Z,2.15
2019-03-30T11:36:39.870Z,6.75
2019-03-30T11:39:08.797Z,3.70
2019-03-30T11:41:37.757Z,2.98
2019-03-30T11:44:06.580Z,4.58
2019-03-30T11:46:35.471Z,2.45
2019-03-30T11:49:04.298Z,3.90
2019-03-30T11:51:33.178Z,2.33
2019-03-30T11:54:02.105Z,3.40
2019-03-30T11:56:30.906Z,5.08
2019-03-30T11:58:59.728Z,3.47
2019-03-30T12:01:28.576Z,5.58
2019-03-30T12:03:57.449Z,2.75
2019-03-30T12:06:26.300Z,3.05
2019-03-30T12:08:55.105Z,1.92
2019-03-30T12:11:23.932Z,4.90
2019-03-30T12:13:52.785Z,3.72
2019-03-30T12:16:21.818Z,2.58
2019-03-30T12:18:50.614Z,1.30
2019-03-30T12:21:19.598Z,2.35
2019-03-30T12:23:48.420Z,4.25
2019-03-30T12:26:17.210Z,2.50
2019-03-30T12:28:46.168Z,5.20
2019-03-30T12:31:14.968Z,2.47
2019-03-30T12:33:43.785Z,2.75
2019-03-30T12:36:12.642Z,3.75
2019-03-30T12:38:41.448Z,2.42
2019-03-30T12:41:10.622Z,2.70
2019-03-30T12:43:39.562Z,6.00
2019-03-30T12:46:08.507Z,1.62
2019-03-30T12:48:37.305Z,3.35
2019-03-30T12:51:06.161Z,1.82
2019-03-30T12:53:34.969Z,3.33
2019-03-30T12:56:04.616Z,2.35
2019-03-30T12:58:33.469Z,1.77
2019-03-30T13:01:02.275Z,4.67
2019-03-30T13:03:31.095Z,1.75
2019-03-30T13:05:59.939Z,2.10
2019-03-30T13:08:28.766Z,3.65
2019-03-30T13:10:57.601Z,3.05
2019-03-30T13:13:26.447Z,3.92
2019-03-30T13:15:55.298Z,2.52
2019-03-30T13:18:24.158Z,2.12
2019-03-30T13:20:52.989Z,3.17
2019-03-30T13:23:21.811Z,8.13
2019-03-30T13:26:02.925Z,3.05
2019-03-30T13:28:21.230Z,2.33
2019-03-30T13:30:50.054Z,3.50
2019-03-30T13:33:18.866Z,2.35
2019-03-30T13:35:47.738Z,3.20
2019-03-30T13:38:16.544Z,4.37
2019-03-30T13:40:45.350Z,1.95
2019-03-30T13:43:14.194Z,3.27
2019-03-30T13:45:43.013Z,3.65
2019-03-30T13:48:11.825Z,3.27
2019-03-30T13:50:40.790Z,4.10
2019-03-30T13:53:09.643Z,5.45
2019-03-30T13:55:38.503Z,4.35
2019-03-30T13:58:07.346Z,3.52
2019-03-30T14:00:36.189Z,7.00
2019-03-30T14:03:05.092Z,4.37
2019-03-30T14:05:33.914Z,3.27
2019-03-30T14:08:02.839Z,3.60
2019-03-30T14:10:32.346Z,10.40
2019-03-30T14:13:01.160Z,5.37
2019-03-30T14:15:30.111Z,1.57
2019-03-30T14:17:58.927Z,2.77
2019-03-30T14:20:27.761Z,5.70
2019-03-30T14:22:58.088Z,5.67
2019-03-30T14:25:26.922Z,5.87
2019-03-30T14:27:55.738Z,6.55
2019-03-30T14:30:24.585Z,6.17
2019-03-30T14:32:53.414Z,7.50
2019-03-30T14:35:22.223Z,5.62
2019-03-30T14:37:51.073Z,4.72
2019-03-30T14:40:19.917Z,3.37
2019-03-30T14:42:48.719Z,2.05
2019-03-30T14:45:17.661Z,1.30
2019-03-30T14:47:46.509Z,3.12
2019-03-30T14:50:15.498Z,3.37
2019-03-30T14:52:44.421Z,2.40
2019-03-30T14:55:13.262Z,3.08
2019-03-30T14:57:42.085Z,7.97
2019-03-30T15:00:11.564Z,4.37
2019-03-30T15:02:40.597Z,3.90
2019-03-30T15:05:09.773Z,2.55
2019-03-30T15:07:38.602Z,3.98
2019-03-30T15:10:09.578Z,5.58
2019-03-30T15:12:38.812Z,2.90
2019-03-30T15:15:11.679Z,4.42
2019-03-30T15:17:41.356Z,5.55
2019-03-30T15:20:11.508Z,4.00
2019-03-30T15:22:40.381Z,5.62
2019-03-30T15:25:10.480Z,3.30
2019-03-30T15:27:39.362Z,7.25
2019-03-30T15:30:08.814Z,7.92
2019-03-30T15:32:37.638Z,7.45
2019-03-30T15:35:08.638Z,6.30
2019-03-30T15:37:37.494Z,8.50
2019-03-30T15:40:06.828Z,6.85
2019-03-30T15:42:35.821Z,7.55
2019-03-30T15:45:07.548Z,7.20
2019-03-30T15:47:36.371Z,5.70
2019-03-30T15:50:09.745Z,8.18
2019-03-30T15:52:38.610Z,8.65
2019-03-30T15:55:08.331Z,4.90
2019-03-30T15:57:37.344Z,7.53
2019-03-30T16:00:11.373Z,5.50
2019-03-30T16:02:40.202Z,7.30
2019-03-30T16:05:09.124Z,4.67
2019-03-30T16:07:37.959Z,8.93
2019-03-30T16:10:06.877Z,7.67
2019-03-30T16:12:35.674Z,8.30
2019-03-30T16:15:06.117Z,5.80
2019-03-30T16:17:34.917Z,7.75
2019-03-30T16:20:06.189Z,5.35
2019-03-30T16:22:34.998Z,3.45
2019-03-30T16:25:07.962Z,8.98
2019-03-30T16:27:39.169Z,6.70
2019-03-30T16:30:08.961Z,5.35
2019-03-30T16:32:37.767Z,4.45
2019-03-30T16:35:06.680Z,6.50
2019-03-30T16:37:35.511Z,6.00
2019-03-30T16:40:05.225Z,6.87
2019-03-30T16:42:34.066Z,4.65
2019-03-30T16:45:02.980Z,3.95
2019-03-30T16:47:31.803Z,5.75
2019-03-30T16:50:00.684Z,5.20
2019-03-30T16:52:32.530Z,5.50
2019-03-30T16:55:01.368Z,4.95
2019-03-30T16:57:42.356Z,2.72
2019-03-30T17:00:02.987Z,2.30
2019-03-30T17:02:31.762Z,4.28
2019-03-30T17:05:00.822Z,4.15
2019-03-30T17:07:29.779Z,5.08
2019-03-30T17:09:58.672Z,5.35
2019-03-30T17:12:27.693Z,3.58
2019-03-30T17:14:57.839Z,4.12
2019-03-30T17:17:26.745Z,7.33
2019-03-30T17:19:55.809Z,6.28
2019-03-30T17:22:25.268Z,5.12
2019-03-30T17:24:54.070Z,6.78
2019-03-30T17:27:23.000Z,6.03
2019-03-30T17:29:51.778Z,8.70
2019-03-30T17:32:20.738Z,5.30
2019-03-30T17:34:49.624Z,6.00
2019-03-30T17:37:18.416Z,5.08
2019-03-30T17:39:47.223Z,6.25
2019-03-30T17:42:18.000Z,5.20
2019-03-30T17:44:46.584Z,3.10
2019-03-30T17:47:15.427Z,7.55
2019-03-30T17:49:44.562Z,5.58
2019-03-30T17:52:13.507Z,5.62
2019-03-30T17:54:42.403Z,8.93
2019-03-30T17:57:11.211Z,5.72
2019-03-30T17:59:40.041Z,6.22
2019-03-30T18:02:08.896Z,9.18
2019-03-30T18:04:39.041Z,3.37
2019-03-30T18:07:08.151Z,6.30
2019-03-30T18:09:36.963Z,5.62
2019-03-30T18:12:05.934Z,7.72
2019-03-30T18:14:34.974Z,8.13
2019-03-30T18:17:03.816Z,9.10
2019-03-30T18:19:32.659Z,5.53
2019-03-30T18:22:01.492Z,3.27
2019-03-30T18:24:30.285Z,8.25
2019-03-30T18:26:59.114Z,5.75
2019-03-30T18:29:27.963Z,4.67
2019-03-30T18:31:57.101Z,3.77
2019-03-30T18:34:26.410Z,5.05
2019-03-30T18:36:56.450Z,5.40
2019-03-30T18:39:25.266Z,5.60
2019-03-30T18:41:54.079Z,4.10
2019-03-30T18:44:22.919Z,9.30
2019-03-30T18:46:51.764Z,2.95
2019-03-30T18:49:20.587Z,10.23
2019-03-30T18:51:50.646Z,9.10
2019-03-30T18:54:20.269Z,4.78
2019-03-30T18:56:49.074Z,4.60
2019-03-30T18:59:17.930Z,5.12
2019-03-30T19:01:46.749Z,4.45
2019-03-30T19:04:15.644Z,5.62
2019-03-30T19:06:44.530Z,11.40
2019-03-30T19:09:13.337Z,6.95
2019-03-30T19:11:42.306Z,7.80
2019-03-30T19:14:11.346Z,9.93
2019-03-30T19:16:40.343Z,7.62
2019-03-30T19:19:09.183Z,2.92
2019-03-30T19:21:38.017Z,2.62
2019-03-30T19:24:06.892Z,6.03
2019-03-30T19:26:35.816Z,7.03
2019-03-30T19:29:04.828Z,6.33
2019-03-30T19:31:33.569Z,2.40
2019-03-30T19:34:04.941Z,7.22
2019-03-30T19:36:33.786Z,6.47
2019-03-30T19:39:02.594Z,3.70
2019-03-30T19:41:31.434Z,8.20
2019-03-30T19:44:01.284Z,4.47
2019-03-30T19:46:30.136Z,6.10
2019-03-30T19:48:59.014Z,2.67
2019-03-30T19:51:27.848Z,6.20
2019-03-30T19:53:59.809Z,4.37
2019-03-30T19:56:27.271Z,5.67
2019-03-30T19:59:09.781Z,4.97
2019-03-30T20:01:26.634Z,7.20
2019-03-30T20:03:55.512Z,4.80
2019-03-30T20:06:25.431Z,11.78
2019-03-30T20:08:56.554Z,8.13
2019-03-30T20:11:25.633Z,5.05
2019-03-30T20:13:54.587Z,1.85
2019-03-30T20:16:24.026Z,2.55
2019-03-30T20:19:10.694Z,3.77
2019-03-30T20:21:23.322Z,2.12
2019-03-30T20:23:52.133Z,3.02
2019-03-30T20:26:21.026Z,3.58
2019-03-30T20:28:49.832Z,1.90
2019-03-30T20:31:18.643Z,2.95
2019-03-30T20:33:47.481Z,3.15
2019-03-30T20:36:16.452Z,4.10
2019-03-30T20:38:45.739Z,5.40
2019-03-30T20:41:14.556Z,4.90
2019-03-30T20:43:43.393Z,6.42
2019-03-30T20:46:12.309Z,4.20
2019-03-30T20:48:41.149Z,5.83
2019-03-30T20:51:10.369Z,6.30
2019-03-30T20:53:39.294Z,5.80
2019-03-30T20:56:08.117Z,5.12
2019-03-30T20:58:36.979Z,4.60
2019-03-30T21:01:05.862Z,10.53
2019-03-30T21:03:34.656Z,8.90
2019-03-30T21:06:03.488Z,10.43
2019-03-30T21:08:32.371Z,11.75
2019-03-30T21:11:02.946Z,11.18
2019-03-30T21:13:31.753Z,8.03
2019-03-30T21:16:02.019Z,10.95
2019-03-30T21:18:32.319Z,4.33
2019-03-30T21:21:01.248Z,8.25
2019-03-30T21:23:30.104Z,6.80
2019-03-30T21:25:58.962Z,6.15
2019-03-30T21:28:27.758Z,4.55
2019-03-30T21:30:56.592Z,10.18
2019-03-30T21:33:25.496Z,9.30
2019-03-30T21:35:54.426Z,9.18
2019-03-30T21:38:23.303Z,12.18
2019-03-30T21:40:52.134Z,12.40
2019-03-30T21:43:20.946Z,4.90
2019-03-30T21:45:49.857Z,9.15
2019-03-30T21:48:18.684Z,8.28
2019-03-30T21:50:47.636Z,6.10
2019-03-30T21:53:16.528Z,9.78
2019-03-30T21:55:45.426Z,9.35
2019-03-30T21:58:14.256Z,3.08
2019-03-30T22:00:43.112Z,4.90
2019-03-30T22:03:12.018Z,8.58
2019-03-30T22:05:41.326Z,6.70
2019-03-30T22:08:10.134Z,5.35
2019-03-30T22:10:39.114Z,4.72
2019-03-30T22:13:07.904Z,4.25
2019-03-30T22:15:37.773Z,8.25
2019-03-30T22:18:06.700Z,7.58
2019-03-30T22:20:35.592Z,6.72
2019-03-30T22:23:04.375Z,9.95
2019-03-30T22:25:33.194Z,9.85
2019-03-30T22:28:02.039Z,9.25
2019-03-30T22:30:30.899Z,10.70
2019-03-30T22:32:59.668Z,2.17
2019-03-30T22:35:28.471Z,7.47
2019-03-30T22:37:57.393Z,6.70
2019-03-30T22:40:26.213Z,6.75
2019-03-30T22:42:55.205Z,4.33
2019-03-30T22:45:23.982Z,4.90
2019-03-30T22:47:52.810Z,3.83
2019-03-30T22:50:21.623Z,5.22
2019-03-30T22:52:50.431Z,0.68
2019-03-30T22:55:19.935Z,2.12
2019-03-30T22:57:48.742Z,2.60
2019-03-30T23:00:39.042Z,3.47
2019-03-30T23:03:06.983Z,4.95
2019-03-30T23:05:35.806Z,4.53
2019-03-30T23:08:04.932Z,2.98
2019-03-30T23:10:33.931Z,7.17
2019-03-30T23:13:02.889Z,2.98
2019-03-30T23:15:31.691Z,10.98
2019-03-30T23:18:00.495Z,4.30
2019-03-30T23:20:29.308Z,1.92
2019-03-30T23:22:58.140Z,4.40
2019-03-30T23:25:26.946Z,4.47
2019-03-30T23:27:55.755Z,4.15
2019-03-30T23:30:24.696Z,3.20
2019-03-30T23:32:53.507Z,2.85
2019-03-30T23:35:22.315Z,5.35
2019-03-30T23:37:51.163Z,3.62
2019-03-30T23:40:19.975Z,5.90
2019-03-30T23:42:48.799Z,4.12
2019-03-30T23:45:17.656Z,7.60
2019-03-30T23:47:46.460Z,3.17
2019-03-30T23:50:15.343Z,5.85
2019-03-30T23:52:44.152Z,6.05
2019-03-30T23:55:13.275Z,1.47
2019-03-30T23:57:42.187Z,3.17
